PASV/SVW METAR and TAF weather

Enter ICAO airport designator
Station Type Date Time Source
PASV METAR 2020/01/17 21:55 UTC NOAA

PASV 172155Z AUTO 00000KT 10SM CLR M11/M23 A2976 RMK AO2 SLP133 T11131228


Station Type Date Time Source
PASV Decoded METAR 2020/01/17 21:55 UTC NOAA

Sparrevohn Airways Facilities Sector, AK, United States (PASV) 61-06N 155-34W
Jan 17, 2020 - 04:55 PM EST / 2020.01.17 2155 UTC
Wind: Calm:0
Visibility: 10 mile(s):0
Sky conditions: clear
Temperature: 11.7 F (-11.3 C)
Dew Point: -9.0 F (-22.8 C)
Relative Humidity: 38%
Pressure (altimeter): 29.76 in. Hg (1007 hPa)
ob: PASV 172155Z AUTO 00000KT 10SM CLR M11/M23 A2976 RMK AO2 SLP133 T11131228
cycle: 22

Station Type Date Time Source
PASV TAF 2012/01/12 14:57 UTC NOAA

TAF
AMD PASV 1214/1320 33010G15KT 4800 -SN BLSN SCT003 SCT110 QNH2984INS
BECMG 1221/1222 VRB06KT 9999 NSW FEW010 SCT110 QNH3000INS LIMITED METWATCH TM25/1300Z TM37/1315Z
AMD 121453

Example: see airport list